Skip Navigation LinksHome page > Weather > Current weather Skip Navigation Links

Current Weather

Honolulu Intl, Honolulu

For information only: do not use for flight planning or navigation.
Latest weather
Observation time Tuesday, March 28, 2017 8:53 PM HST
Local time Tuesday, March 28, 2017 9:14 PM HST
Flight conditions Visual Meteorological Conditions
Winds
Wind direction East (90°)
Wind speed 8 mph
Visibility 10 mi.
Sky condition
Ceiling unlimited
Cloud layer few clouds 2,800 ft.
Temperature 75°F
Dewpoint 62°F
Altimeter 30.10 in.Hg
Derived measurements
Relative humidity 64%
Density altitude 1104 ft.
Sea-level pressure 30.10 in.Hg
Remarks
System requires maintenance.
Automated weather observing station with precipitation discriminator.
METAR PHNL 290653Z 09007KT 10SM FEW028 24/17 A3010 RMK AO2 SLP192 T02390167 $

Settings

Location code

InnerDrive.Weather 4.0.6144.1 Release CLR 4.0.30319.34209
Copyright ©2015 Inner Drive Technology. All rights reserved. Portions Copyright ©1986-2015 David Braverman.

Find weather

Site navigation


Skip Navigation Links

Place info

Page info

PayPal - The safer, easier way to pay online!

Return home.

Copyright ©2017 Inner Drive Technology. Purveyors of fine, hand-crafted computer software. Page printed 2017-03-29T07:14:06 UTC.